Time;durP1;ratioP1;P1;durP2;ratioP2;P2;SDS_P1;SDS_P2;PMS_P1;PMS_P2;Temp;Humidity;BMP_temperature;BMP_pressure;BME280_temperature;BME280_humidity;BME280_pressure;Samples;Min_cycle;Max_cycle;Signal;HPM_P1;HPM_P2
2023/02/24 00:00:57;;;;;;;10.57;7.57;;;;;;;9.22;100.00;101746.72;2064709;28;20651;-63
2023/02/24 00:02:00;;;;;;;13.63;8.15;;;;;;;9.45;100.00;101781.09;2069461;28;20201;-63
2023/02/24 00:03:05;;;;;;;13.10;7.53;;;;;;;9.41;100.00;101791.34;2072899;28;20280;-63
2023/02/24 00:04:08;;;;;;;9.80;7.85;;;;;;;9.41;100.00;101827.31;2072769;28;20212;-63
2023/02/24 00:05:09;;;;;;;12.88;7.50;;;;;;;9.28;100.00;101783.84;2069359;28;20188;-63
2023/02/24 00:06:12;;;;;;;13.07;8.30;;;;;;;9.44;100.00;101800.84;2067482;28;20202;-63
2023/02/24 00:07:13;;;;;;;13.70;8.15;;;;;;;9.34;100.00;101802.44;2072721;28;20270;-63
2023/02/24 00:08:13;;;;;;;11.07;7.90;;;;;;;9.14;100.00;101776.34;2071223;28;20216;-63
2023/02/24 00:09:14;;;;;;;14.43;8.90;;;;;;;9.15;100.00;101802.03;2065274;28;20569;-63
2023/02/24 00:10:19;;;;;;;10.90;8.43;;;;;;;8.99;100.00;101799.66;2072614;28;20223;-63
2023/02/24 00:11:20;;;;;;;13.07;8.15;;;;;;;8.93;100.00;101792.13;2073065;28;20200;-63
2023/02/24 00:12:21;;;;;;;13.00;8.40;;;;;;;8.93;100.00;101801.22;2072092;28;20191;-63
2023/02/24 00:13:21;;;;;;;12.07;8.67;;;;;;;8.45;100.00;101713.50;2072993;28;20209;-63
2023/02/24 00:14:23;;;;;;;12.23;8.03;;;;;;;9.00;100.00;101787.41;2072502;28;20224;-63
2023/02/24 00:15:24;;;;;;;11.88;8.35;;;;;;;9.10;100.00;101799.66;2072605;28;20194;-63
2023/02/24 00:16:25;;;;;;;13.13;7.83;;;;;;;9.12;100.00;101786.22;2072114;28;20171;-63
2023/02/24 00:17:29;;;;;;;15.95;8.00;;;;;;;9.25;100.00;101790.16;2072169;28;20180;-63
2023/02/24 00:18:31;;;;;;;12.40;8.43;;;;;;;9.20;100.00;101785.03;2066614;28;20915;-63
2023/02/24 00:19:31;;;;;;;9.60;7.88;;;;;;;9.28;100.00;101786.63;2073489;28;20726;-63
2023/02/24 00:20:32;;;;;;;11.37;8.27;;;;;;;9.14;100.00;101776.34;2068594;28;20683;-63
2023/02/24 00:21:34;;;;;;;10.85;8.02;;;;;;;9.19;100.00;101789.00;2072745;28;20204;-63
2023/02/24 00:22:35;;;;;;;14.10;8.00;;;;;;;8.38;100.00;101675.59;2070161;28;20187;-63
2023/02/24 00:23:37;;;;;;;11.30;8.10;;;;;;;9.26;100.00;101789.78;2068722;28;20206;-63
2023/02/24 00:24:37;;;;;;;13.82;8.25;;;;;;;9.17;100.00;101781.06;2067989;28;20194;-63
2023/02/24 00:25:38;;;;;;;11.17;7.97;;;;;;;9.20;100.00;101788.59;2072826;28;20264;-63
2023/02/24 00:26:39;;;;;;;10.30;7.43;;;;;;;9.26;100.00;101788.97;2071969;28;20646;-63
2023/02/24 00:27:41;;;;;;;9.63;7.88;;;;;;;8.76;100.00;101713.53;2072343;28;20189;-63
2023/02/24 00:28:42;;;;;;;12.30;8.27;;;;;;;9.21;100.00;101789.38;2068687;28;20183;-63
2023/02/24 00:29:44;;;;;;;11.50;8.40;;;;;;;9.21;100.00;101794.91;2072858;28;20702;-63
2023/02/24 00:30:45;;;;;;;12.02;8.43;;;;;;;9.22;100.00;101783.44;2072595;28;20185;-63
2023/02/24 00:31:49;;;;;;;13.10;8.00;;;;;;;9.09;100.00;101764.88;2072405;28;20266;-63
2023/02/24 00:32:49;;;;;;;12.15;8.25;;;;;;;9.19;100.00;101780.69;2068181;28;20197;-63
2023/02/24 00:33:50;;;;;;;12.83;8.33;;;;;;;9.14;100.00;101768.06;2067878;28;20278;-63
2023/02/24 00:34:50;;;;;;;12.00;8.30;;;;;;;9.25;100.00;101785.44;2072776;28;20236;-63
2023/02/24 00:35:51;;;;;;;12.80;7.70;;;;;;;9.20;100.00;101772.00;2072131;28;20189;-63
2023/02/24 00:36:52;;;;;;;12.30;8.13;;;;;;;9.12;100.00;101769.63;2072889;28;20209;-63
2023/02/24 00:37:53;;;;;;;11.57;8.57;;;;;;;9.07;100.00;101770.81;2072293;28;20437;-63
2023/02/24 00:38:59;;;;;;;11.00;8.40;;;;;;;9.13;100.00;101773.97;2072782;28;20226;-63
2023/02/24 00:39:59;;;;;;;10.48;7.88;;;;;;;9.13;100.00;101771.22;2072780;28;20199;-63
2023/02/24 00:41:15;;;;;;;13.03;8.07;;;;;;;8.54;100.00;101680.72;2072532;28;20205;-63
2023/02/24 00:42:16;;;;;;;11.23;8.57;;;;;;;9.17;100.00;101772.78;2072352;28;20603;-63
2023/02/24 00:43:17;;;;;;;13.38;8.30;;;;;;;8.39;100.00;101629.41;2072321;28;20235;-63
2023/02/24 00:44:17;;;;;;;13.70;8.43;;;;;;;9.31;100.00;101766.44;2068666;28;20220;-63
2023/02/24 00:45:17;;;;;;;11.90;8.23;;;;;;;9.35;100.00;101770.00;2072261;28;20344;-63
2023/02/24 00:46:20;;;;;;;10.30;7.80;;;;;;;9.10;100.00;101742.38;2072547;28;20209;-63
2023/02/24 00:47:21;;;;;;;11.20;7.53;;;;;;;9.37;100.00;101771.19;2072601;28;20208;-63
2023/02/24 00:48:28;;;;;;;10.63;7.60;;;;;;;9.42;100.00;101767.22;2072423;28;20180;-63
2023/02/24 00:49:30;;;;;;;12.55;8.18;;;;;;;9.50;100.00;101764.09;2065086;28;20172;-63
2023/02/24 00:50:31;;;;;;;10.35;7.53;;;;;;;9.53;100.00;101765.28;2072046;28;20347;-63
2023/02/24 00:51:41;;;;;;;13.07;8.27;;;;;;;8.64;100.00;101616.41;2065866;28;20317;-63
2023/02/24 00:52:42;;;;;;;11.45;7.90;;;;;;;9.57;100.00;101764.06;2070742;28;20983;-62
2023/02/24 00:53:43;;;;;;;11.50;7.57;;;;;;;9.63;100.00;101767.22;2067078;28;20624;-63
2023/02/24 00:54:45;;;;;;;12.20;7.78;;;;;;;9.67;100.00;101760.50;2068391;28;20325;-63
2023/02/24 00:55:46;;;;;;;12.13;7.85;;;;;;;9.68;100.00;101762.06;2066960;28;20273;-63
2023/02/24 00:56:47;;;;;;;13.27;8.07;;;;;;;9.68;100.00;101762.06;2071062;28;20210;-63
2023/02/24 00:57:50;;;;;;;9.38;7.20;;;;;;;9.62;100.00;101757.31;2071844;28;20189;-63
2023/02/24 00:58:55;;;;;;;13.35;8.07;;;;;;;9.35;100.00;101729.31;2072326;28;20238;-63
2023/02/24 00:59:59;;;;;;;12.10;7.40;;;;;;;9.65;100.00;101767.59;2070362;28;20551;-63
2023/02/24 01:01:01;;;;;;;11.07;7.63;;;;;;;9.67;100.00;101754.16;2067458;28;20223;-63
2023/02/24 01:02:02;;;;;;;11.52;7.53;;;;;;;9.66;100.00;101747.84;2064163;28;20177;-63
2023/02/24 01:03:03;;;;;;;10.53;7.40;;;;;;;9.20;100.00;101683.50;2072295;28;20186;-63
2023/02/24 01:04:07;;;;;;;12.73;7.70;;;;;;;8.99;100.00;101663.38;2071865;28;20449;-63
2023/02/24 01:05:08;;;;;;;12.13;7.90;;;;;;;9.60;100.00;101743.91;2072243;28;20708;-63
2023/02/24 01:06:11;;;;;;;11.25;8.02;;;;;;;9.49;100.00;101750.63;2072512;28;20217;-63
2023/02/24 01:07:11;;;;;;;10.63;8.00;;;;;;;9.45;100.00;101755.38;2072217;28;20233;-63
2023/02/24 01:08:20;;;;;;;15.55;8.35;;;;;;;8.86;100.00;101656.69;2072002;28;20225;-63
2023/02/24 01:09:20;;;;;;;13.57;7.78;;;;;;;9.44;100.00;101753.81;2068634;28;20203;-63
2023/02/24 01:10:22;;;;;;;13.60;7.87;;;;;;;9.31;100.00;101747.88;2066858;28;20199;-63
2023/02/24 01:12:52;;;;;;;12.35;8.30;;;;;;;9.00;100.00;101748.69;2070749;28;20724;-63
2023/02/24 01:13:53;;;;;;;13.20;8.70;;;;;;;8.86;100.00;101768.03;2072356;28;20253;-63
2023/02/24 01:14:54;;;;;;;13.83;8.97;;;;;;;8.90;100.00;101748.66;2072212;28;20236;-63
2023/02/24 01:16:03;;;;;;;15.77;8.57;;;;;;;8.34;100.00;101651.91;2072238;28;20173;-63
2023/02/24 01:17:04;;;;;;;15.35;8.73;;;;;;;8.81;100.00;101720.66;2072027;28;20593;-63
2023/02/24 01:18:05;;;;;;;14.95;8.35;;;;;;;8.91;100.00;101744.75;2071779;28;20181;-62
2023/02/24 01:19:05;;;;;;;12.27;8.33;;;;;;;8.67;100.00;101715.09;2069070;28;20179;-63
2023/02/24 01:20:15;;;;;;;17.20;9.30;;;;;;;8.87;100.00;101741.94;2071652;28;20242;-63
2023/02/24 01:21:17;;;;;;;12.05;8.25;;;;;;;8.92;100.00;101740.78;2071587;28;20651;-63
2023/02/24 01:22:19;;;;;;;17.40;8.98;;;;;;;8.95;100.00;101742.75;2071798;28;20280;-63
2023/02/24 01:23:20;;;;;;;14.93;8.57;;;;;;;8.96;100.00;101739.59;2067130;28;20285;-63
2023/02/24 01:24:22;;;;;;;11.30;8.33;;;;;;;9.02;100.00;101734.47;2068477;28;20196;-63
2023/02/24 01:25:23;;;;;;;13.73;8.80;;;;;;;8.94;100.00;101741.19;2072172;28;20198;-63
2023/02/24 01:26:25;;;;;;;15.50;9.00;;;;;;;8.78;100.00;101733.28;2069777;28;20218;-63
2023/02/24 01:27:25;;;;;;;12.48;8.45;;;;;;;8.72;100.00;101726.53;2070796;28;20181;-63
2023/02/24 01:28:26;;;;;;;14.83;8.50;;;;;;;8.71;100.00;101713.13;2071463;28;20181;-63
2023/02/24 01:29:26;;;;;;;15.87;9.20;;;;;;;8.15;100.00;101616.34;2070797;28;20192;-63
2023/02/24 01:30:27;;;;;;;15.07;9.00;;;;;;;8.94;100.00;101730.13;2064601;28;20214;-63
2023/02/24 01:31:28;;;;;;;15.47;8.57;;;;;;;8.84;100.00;101725.38;2071070;28;20204;-63
2023/02/24 01:32:30;;;;;;;18.02;8.80;;;;;;;8.80;100.00;101725.38;2071715;28;20262;-63
2023/02/24 01:33:32;;;;;;;17.92;8.95;;;;;;;8.75;100.00;101731.28;2071745;28;20632;-63
2023/02/24 01:34:33;;;;;;;13.23;9.00;;;;;;;8.72;100.00;101729.31;2069376;28;20206;-63
2023/02/24 01:35:34;;;;;;;11.95;9.13;;;;;;;7.96;100.00;101614.72;2071412;28;20188;-63
2023/02/24 01:36:34;;;;;;;16.00;9.37;;;;;;;8.77;100.00;101734.44;2071812;28;20314;-63
2023/02/24 01:37:35;;;;;;;14.57;8.33;;;;;;;8.74;100.00;101724.19;2072703;28;20181;-63
2023/02/24 01:38:36;;;;;;;15.00;9.30;;;;;;;8.78;100.00;101729.72;2064103;28;20343;-63
2023/02/24 01:39:36;;;;;;;15.17;9.40;;;;;;;8.68;100.00;101724.97;2065251;28;20281;-63
2023/02/24 01:40:37;;;;;;;11.57;8.80;;;;;;;8.48;100.00;101696.91;2064302;28;20707;-63
2023/02/24 01:41:42;;;;;;;16.80;9.17;;;;;;;8.74;100.00;101720.63;2071529;28;20198;-63
2023/02/24 01:42:43;;;;;;;12.07;8.63;;;;;;;8.41;100.00;101682.31;2071446;28;20217;-63
2023/02/24 01:44:16;;;;;;;14.37;8.90;;;;;;;8.71;100.00;101722.19;2072444;28;20193;-63
2023/02/24 01:45:20;;;;;;;13.68;8.50;;;;;;;8.79;100.00;101725.75;2071981;28;20443;-62
2023/02/24 01:46:22;;;;;;;15.02;8.90;;;;;;;8.82;100.00;101716.69;2066962;28;20198;-63
2023/02/24 01:47:22;;;;;;;12.55;8.90;;;;;;;8.78;100.00;101724.19;2069268;28;20394;-63
2023/02/24 01:48:23;;;;;;;12.63;9.23;;;;;;;8.74;100.00;101740.78;2068549;28;20194;-63
2023/02/24 01:49:28;;;;;;;13.80;9.00;;;;;;;8.70;100.00;101715.09;2069441;28;20188;-63
2023/02/24 01:50:31;;;;;;;15.27;9.50;;;;;;;8.47;100.00;101708.34;2070562;28;20179;-63
2023/02/24 01:51:37;;;;;;;11.40;9.20;;;;;;;8.64;100.00;101713.09;2070319;28;20686;-63
2023/02/24 01:52:37;;;;;;;15.23;9.57;;;;;;;8.68;100.00;101720.25;2071235;28;20166;-63
2023/02/24 01:53:38;;;;;;;14.00;9.17;;;;;;;8.69;100.00;101718.25;2072534;28;20185;-63
2023/02/24 01:54:48;;;;;;;12.13;9.07;;;;;;;8.60;100.00;101699.28;2072303;28;20204;-63
2023/02/24 01:55:50;;;;;;;15.32;9.30;;;;;;;8.61;100.00;101695.34;2071598;28;20279;-63
2023/02/24 01:56:52;;;;;;;15.45;10.02;;;;;;;8.67;100.00;101713.09;2071560;28;20679;-63
2023/02/24 01:57:53;;;;;;;12.93;8.80;;;;;;;8.68;100.00;101708.38;2071733;28;20193;-63
2023/02/24 01:58:54;;;;;;;17.10;9.90;;;;;;;8.69;100.00;101698.91;2071675;28;20714;-63
2023/02/24 02:00:01;;;;;;;15.38;9.82;;;;;;;8.68;100.00;101706.44;2071957;28;20193;-63
2023/02/24 02:01:07;;;;;;;12.85;9.45;;;;;;;8.31;100.00;101636.91;2071380;28;20186;-63
2023/02/24 02:02:08;;;;;;;11.85;9.00;;;;;;;8.53;100.00;101668.91;2070859;28;20652;-63
2023/02/24 02:03:36;;;;;;;16.75;9.50;;;;;;;8.73;100.00;101705.22;2071710;28;20886;-63
2023/02/24 02:04:56;;;;;;;12.45;9.35;;;;;;;8.72;100.00;101698.13;2071663;28;20763;-63
2023/02/24 02:06:02;;;;;;;14.40;9.00;;;;;;;8.76;100.00;101698.94;2069419;28;20280;-63
2023/02/24 02:07:04;;;;;;;17.15;9.07;;;;;;;8.80;100.00;101700.50;2071065;28;20217;-63
2023/02/24 02:08:07;;;;;;;15.20;9.90;;;;;;;8.08;100.00;101581.22;2070873;28;20203;-63
2023/02/24 02:09:08;;;;;;;13.75;9.15;;;;;;;8.84;100.00;101694.97;2067346;28;20651;-63
2023/02/24 02:10:11;;;;;;;13.80;9.57;;;;;;;8.84;100.00;101706.81;2072002;28;20691;-63
2023/02/24 02:11:18;;;;;;;14.10;9.50;;;;;;;8.23;100.00;101602.19;2071957;28;20183;-63
2023/02/24 02:12:20;;;;;;;13.13;9.18;;;;;;;8.21;100.00;101618.34;2071578;28;20295;-63
2023/02/24 02:13:20;;;;;;;12.73;8.93;;;;;;;8.77;100.00;101692.22;2072149;28;20264;-63
2023/02/24 02:14:24;;;;;;;12.47;9.20;;;;;;;8.83;100.00;101709.97;2072622;28;20173;-63
2023/02/24 02:15:27;;;;;;;12.88;9.50;;;;;;;8.79;100.00;101696.16;2068406;28;20276;-63
2023/02/24 02:16:40;;;;;;;12.02;8.75;;;;;;;8.78;100.00;101697.34;2064765;28;20179;-63
2023/02/24 02:17:47;;;;;;;16.05;9.50;;;;;;;8.76;100.00;101690.63;2069725;28;20196;-63
2023/02/24 02:18:55;;;;;;;13.52;9.30;;;;;;;8.71;100.00;101697.34;2071801;28;20198;-63
2023/02/24 02:20:18;;;;;;;16.00;9.50;;;;;;;7.92;100.00;101560.69;2072080;28;20233;-63
2023/02/24 02:21:28;;;;;;;13.90;8.60;;;;;;;8.73;100.00;101691.41;2074968;28;20651;-63
2023/02/24 02:22:50;;;;;;;13.15;9.45;;;;;;;8.66;100.00;101694.19;2066352;28;20193;-63
2023/02/24 02:24:16;;;;;;;12.60;9.55;;;;;;;8.68;100.00;101692.59;2073677;28;20210;-63
2023/02/24 02:25:27;;;;;;;15.85;9.68;;;;;;;8.66;100.00;101685.91;2072561;28;20197;-63
2023/02/24 02:26:52;;;;;;;15.35;9.35;;;;;;;8.64;100.00;101682.72;2070685;28;20664;-63
2023/02/24 02:28:05;;;;;;;14.00;9.60;;;;;;;8.62;100.00;101687.84;2073384;28;20667;-63
2023/02/24 02:29:05;;;;;;;15.02;9.07;;;;;;;8.70;100.00;101693.00;2074672;28;20190;-63
2023/02/24 02:30:24;;;;;;;13.73;9.90;;;;;;;8.73;100.00;101689.44;2074471;28;20197;-63
2023/02/24 02:31:50;;;;;;;14.50;9.05;;;;;;;8.70;100.00;101683.91;2074906;28;20211;-63
2023/02/24 02:32:51;;;;;;;13.52;9.57;;;;;;;8.71;100.00;101691.03;2074699;28;20225;-63
2023/02/24 02:34:10;;;;;;;16.50;10.60;;;;;;;8.76;100.00;101683.13;2073872;28;20183;-63
2023/02/24 02:35:18;;;;;;;24.90;9.52;;;;;;;8.77;100.00;101676.41;2067601;28;20167;-63
2023/02/24 02:36:21;;;;;;;15.95;9.07;;;;;;;8.75;100.00;101675.22;2074707;28;20154;-63
2023/02/24 02:37:32;;;;;;;14.48;9.00;;;;;;;8.62;100.00;101674.81;2069368;28;20174;-63
2023/02/24 02:38:53;;;;;;;14.45;9.43;;;;;;;8.78;100.00;101682.72;2066506;28;20166;-63
2023/02/24 02:39:57;;;;;;;12.73;8.98;;;;;;;8.78;100.00;101671.69;2073085;28;20256;-63
2023/02/24 02:41:35;;;;;;;14.35;8.60;;;;;;;8.87;100.00;101689.44;2074642;28;20216;-63
2023/02/24 02:42:48;;;;;;;11.88;8.00;;;;;;;8.86;100.00;101673.25;2069984;28;20233;-63
2023/02/24 02:44:07;;;;;;;14.93;9.25;;;;;;;8.81;100.00;101674.44;2074223;28;20182;-63
2023/02/24 02:45:16;;;;;;;15.48;8.93;;;;;;;8.16;100.00;101569.00;2068848;28;20210;-63
2023/02/24 02:46:20;;;;;;;16.13;8.70;;;;;;;8.81;100.00;101674.44;2074495;28;20562;-63
2023/02/24 02:47:52;;;;;;;13.90;8.93;;;;;;;8.81;100.00;101674.44;2074403;28;20570;-63
2023/02/24 02:48:58;;;;;;;15.00;8.98;;;;;;;8.73;100.00;101667.34;2067192;28;20178;-63
2023/02/24 02:50:08;;;;;;;18.92;9.93;;;;;;;8.47;100.00;101631.81;2073933;28;20186;-63
2023/02/24 02:51:15;;;;;;;11.40;8.95;;;;;;;8.80;100.00;101670.09;2066951;28;20172;-63
2023/02/24 02:52:23;;;;;;;15.43;9.48;;;;;;;8.58;100.00;101642.84;2066455;28;20330;-63
2023/02/24 02:53:36;;;;;;;15.10;9.35;;;;;;;8.77;100.00;101670.88;2068825;28;20306;-63
2023/02/24 02:54:48;;;;;;;15.75;9.65;;;;;;;8.70;100.00;101668.13;2066899;28;20175;-63
2023/02/24 02:55:58;;;;;;;16.40;9.45;;;;;;;8.74;100.00;101663.38;2072122;28;20187;-63
2023/02/24 02:57:25;;;;;;;14.23;9.27;;;;;;;8.80;100.00;101663.75;2066688;28;20739;-63
2023/02/24 02:58:33;;;;;;;13.13;9.35;;;;;;;8.78;100.00;101658.66;2066977;28;20580;-63
2023/02/24 02:59:39;;;;;;;14.65;9.70;;;;;;;8.75;100.00;101655.88;2074601;28;20181;-63
2023/02/24 03:00:57;;;;;;;16.88;9.45;;;;;;;8.74;100.00;101659.81;2074429;28;20423;-63
2023/02/24 03:02:10;;;;;;;14.82;9.50;;;;;;;8.73;100.00;101661.00;2070807;28;20218;-63
2023/02/24 03:03:16;;;;;;;13.57;9.45;;;;;;;8.82;100.00;101689.81;2069854;28;20285;-63
2023/02/24 03:04:21;;;;;;;14.40;9.77;;;;;;;7.99;100.00;101528.38;2066682;28;20201;-63
2023/02/24 03:05:28;;;;;;;12.65;9.43;;;;;;;8.89;100.00;101664.16;2068488;28;20164;-63
2023/02/24 03:06:32;;;;;;;13.50;9.48;;;;;;;8.87;100.00;101659.03;2072541;28;20166;-63
2023/02/24 03:07:39;;;;;;;13.98;9.10;;;;;;;8.91;100.00;101668.13;2068694;28;20173;-63
2023/02/24 03:08:47;;;;;;;19.45;9.15;;;;;;;8.92;100.00;101669.69;2073260;28;20185;-63
2023/02/24 03:09:56;;;;;;;14.05;9.50;;;;;;;8.97;100.00;101680.34;2070633;28;20188;-63
2023/02/24 03:10:59;;;;;;;12.57;9.48;;;;;;;8.46;100.00;101582.47;2074121;28;20178;-63
2023/02/24 03:12:06;;;;;;;13.93;9.77;;;;;;;8.92;100.00;101661.41;2073083;28;20726;-63
2023/02/24 03:13:09;;;;;;;15.85;9.55;;;;;;;8.93;100.00;101657.47;2074175;28;20166;-63
2023/02/24 03:14:13;;;;;;;20.55;10.10;;;;;;;8.92;100.00;101660.63;2074829;28;20185;-63
2023/02/24 03:15:16;;;;;;;15.32;9.52;;;;;;;8.27;100.00;101556.03;2066926;28;20306;-63
2023/02/24 03:16:18;;;;;;;12.88;9.60;;;;;;;8.95;100.00;101659.81;2074373;28;20448;-63
2023/02/24 03:17:24;;;;;;;11.25;9.05;;;;;;;7.98;100.00;101504.72;2068476;28;20282;-63
2023/02/24 03:18:30;;;;;;;15.38;9.45;;;;;;;8.92;100.00;101663.38;2074059;28;20264;-63
2023/02/24 03:19:36;;;;;;;15.38;10.02;;;;;;;8.86;100.00;101667.75;2071070;28;20196;-63
2023/02/24 03:20:51;;;;;;;13.25;9.90;;;;;;;8.84;100.00;101656.28;2074305;28;20202;-63
2023/02/24 03:22:05;;;;;;;16.83;10.02;;;;;;;8.85;100.00;101664.16;2073832;28;20271;-63
2023/02/24 03:23:15;;;;;;;15.48;9.57;;;;;;;8.87;100.00;101667.31;2074443;28;20248;-63
2023/02/24 03:24:16;;;;;;;14.05;9.18;;;;;;;8.88;100.00;101662.59;2068151;28;20199;-63
2023/02/24 03:25:23;;;;;;;13.90;9.67;;;;;;;8.88;100.00;101662.59;2071948;28;20196;-63
2023/02/24 03:26:31;;;;;;;13.50;9.50;;;;;;;8.87;100.00;101667.31;2069118;28;20246;-63
2023/02/24 03:27:41;;;;;;;13.18;9.65;;;;;;;8.81;100.00;101668.13;2071359;28;20204;-63
2023/02/24 03:28:58;;;;;;;14.00;9.75;;;;;;;8.55;100.00;101627.03;2073668;28;20197;-63
2023/02/24 03:30:08;;;;;;;15.00;9.40;;;;;;;8.81;100.00;101668.13;2073999;28;20542;-63
2023/02/24 03:31:21;;;;;;;15.18;9.32;;;;;;;8.80;100.00;101666.53;2068374;28;20207;-63
2023/02/24 03:32:35;;;;;;;16.10;10.15;;;;;;;8.85;100.00;101669.69;2071071;28;20190;-63
2023/02/24 03:33:40;;;;;;;14.18;9.57;;;;;;;8.75;100.00;101673.25;2073270;28;20193;-63
2023/02/24 03:34:41;;;;;;;21.17;9.77;;;;;;;8.83;100.00;101674.84;2073163;28;20743;-63
2023/02/24 03:35:42;;;;;;;14.48;9.10;;;;;;;8.78;100.00;101666.94;2072761;28;20606;-63
2023/02/24 03:36:43;;;;;;;13.90;9.15;;;;;;;8.04;100.00;101558.34;2073210;28;20673;-63
2023/02/24 03:37:45;;;;;;;16.80;10.13;;;;;;;8.80;100.00;101672.84;2072259;28;20544;-63
2023/02/24 03:38:49;;;;;;;16.45;9.43;;;;;;;8.66;100.00;101661.03;2073427;28;20548;-63
2023/02/24 03:39:52;;;;;;;14.50;9.65;;;;;;;8.71;100.00;101672.47;2072899;28;20192;-63
2023/02/24 03:40:52;;;;;;;15.05;9.63;;;;;;;8.71;100.00;101675.22;2073045;28;20189;-63
2023/02/24 03:42:17;;;;;;;15.03;10.13;;;;;;;8.72;100.00;101682.31;2072457;28;20713;-63
2023/02/24 03:43:25;;;;;;;12.35;9.18;;;;;;;8.74;100.00;101676.41;2069067;28;20203;-63
2023/02/24 03:44:27;;;;;;;13.27;9.30;;;;;;;8.78;100.00;101674.44;2071008;28;20178;-63
2023/02/24 03:45:28;;;;;;;13.13;8.98;;;;;;;8.82;100.00;101672.47;2066022;28;20348;-63
2023/02/24 03:46:30;;;;;;;16.33;9.43;;;;;;;8.80;100.00;101670.09;2064994;28;20201;-63
2023/02/24 03:47:31;;;;;;;14.13;9.40;;;;;;;8.86;100.00;101670.50;2065681;28;20180;-63
2023/02/24 03:48:37;;;;;;;17.35;9.75;;;;;;;8.90;100.00;101669.31;2072560;28;20237;-63
2023/02/24 03:49:37;;;;;;;17.92;9.77;;;;;;;8.90;100.00;101665.75;2073125;28;20661;-63
2023/02/24 03:50:40;;;;;;;13.67;9.03;;;;;;;8.88;100.00;101660.63;2072865;28;20209;-63
2023/02/24 03:51:47;;;;;;;11.88;9.20;;;;;;;8.86;100.00;101634.56;2069611;28;20200;-63
2023/02/24 03:53:07;;;;;;;14.48;9.18;;;;;;;8.94;100.00;101653.50;2072924;28;20276;-63
2023/02/24 03:54:32;;;;;;;14.05;9.77;;;;;;;8.93;100.00;101654.69;2073165;28;20228;-63
2023/02/24 03:56:14;;;;;;;14.93;9.48;;;;;;;8.93;100.00;101657.47;2065403;28;20170;-63
2023/02/24 03:57:58;;;;;;;14.93;9.88;;;;;;;8.86;100.00;101651.94;2064821;28;20217;-63
2023/02/24 03:59:02;;;;;;;17.10;9.70;;;;;;;8.81;100.00;101659.84;2065447;28;20269;-63
2023/02/24 04:00:33;;;;;;;12.95;9.52;;;;;;;8.76;100.00;101661.00;2072365;28;20190;-63
2023/02/24 04:01:48;;;;;;;14.80;9.50;;;;;;;8.84;100.00;101667.31;2064900;28;20186;-63
2023/02/24 04:02:58;;;;;;;16.60;9.80;;;;;;;8.88;100.00;101668.94;2066447;28;20174;-63
2023/02/24 04:03:59;;;;;;;14.57;9.52;;;;;;;8.89;100.00;101666.94;2072625;28;20185;-63
2023/02/24 04:05:11;;;;;;;13.30;9.13;;;;;;;8.91;100.00;101662.59;2072945;28;20261;-63
2023/02/24 04:06:20;;;;;;;18.75;9.90;;;;;;;8.86;100.00;101664.97;2072406;28;20196;-63
2023/02/24 04:07:26;;;;;;;14.77;9.57;;;;;;;8.88;100.00;101657.88;2072981;28;20182;-63
2023/02/24 04:08:33;;;;;;;13.30;9.60;;;;;;;8.85;100.00;101652.31;2072366;28;20285;-63
2023/02/24 04:10:09;;;;;;;13.05;9.98;;;;;;;8.93;100.00;101653.91;2072608;28;20167;-63
2023/02/24 04:11:19;;;;;;;14.52;9.43;;;;;;;8.96;100.00;101647.59;2068830;28;20185;-63
2023/02/24 04:12:29;;;;;;;15.20;9.30;;;;;;;8.85;100.00;101639.28;2071993;28;20192;-63
2023/02/24 04:13:35;;;;;;;19.23;10.40;;;;;;;8.80;100.00;101650.75;2073120;28;20197;-63
2023/02/24 04:15:03;;;;;;;12.88;9.68;;;;;;;8.87;100.00;101645.19;2072475;28;20204;-63
2023/02/24 04:16:15;;;;;;;13.73;10.05;;;;;;;8.75;100.00;101631.81;2072681;28;20201;-63
2023/02/24 04:17:25;;;;;;;15.05;9.82;;;;;;;8.85;100.00;101644.03;2073063;28;20205;-63
2023/02/24 04:18:29;;;;;;;12.07;9.13;;;;;;;8.85;100.00;101641.25;2072033;28;20233;-63
2023/02/24 04:19:37;;;;;;;17.23;9.77;;;;;;;8.83;100.00;101636.16;2073040;28;20209;-63
2023/02/24 04:20:40;;;;;;;13.57;9.60;;;;;;;8.81;100.00;101640.50;2072706;28;20186;-63
2023/02/24 04:21:44;;;;;;;14.15;9.57;;;;;;;8.64;100.00;101616.41;2072925;28;20186;-63
2023/02/24 04:22:48;;;;;;;15.23;9.57;;;;;;;8.83;100.00;101635.34;2069146;28;20202;-63
2023/02/24 04:23:49;;;;;;;14.25;9.57;;;;;;;8.86;100.00;101629.81;2072187;28;20251;-63
2023/02/24 04:24:55;;;;;;;13.63;10.03;;;;;;;8.89;100.00;101625.47;2072670;28;20667;-63
2023/02/24 04:25:55;;;;;;;19.40;10.82;;;;;;;8.52;100.00;101558.78;2072238;28;20165;-63
2023/02/24 04:27:00;;;;;;;14.73;10.63;;;;;;;8.88;100.00;101621.94;2071365;28;20174;-63
2023/02/24 04:28:02;;;;;;;12.85;9.85;;;;;;;8.90;100.00;101627.03;2065288;28;20197;-63
2023/02/24 04:29:03;;;;;;;14.70;10.07;;;;;;;8.88;100.00;101626.66;2072674;28;20233;-63
2023/02/24 04:30:05;;;;;;;14.97;10.37;;;;;;;8.90;100.00;101618.75;2067430;28;20333;-63
2023/02/24 04:31:09;;;;;;;14.75;9.38;;;;;;;8.87;100.00;101614.81;2072849;28;20194;-63
2023/02/24 04:32:11;;;;;;;16.30;10.40;;;;;;;8.91;100.00;101628.63;2071901;28;20664;-63
2023/02/24 04:33:12;;;;;;;16.27;9.88;;;;;;;8.89;100.00;101606.13;2067222;28;20198;-63
2023/02/24 04:34:18;;;;;;;17.20;10.07;;;;;;;8.08;100.00;101483.81;2068920;28;20194;-63
2023/02/24 04:35:21;;;;;;;15.65;10.05;;;;;;;8.98;100.00;101620.31;2072734;28;20198;-63
2023/02/24 04:36:21;;;;;;;12.95;9.68;;;;;;;9.02;100.00;101615.59;2069278;28;20190;-63
2023/02/24 04:37:23;;;;;;;17.40;9.67;;;;;;;9.02;100.00;101624.66;2066568;28;20256;-63
2023/02/24 04:38:24;;;;;;;12.75;9.95;;;;;;;9.04;100.00;101621.50;2071913;28;20184;-63
2023/02/24 04:39:25;;;;;;;14.10;10.00;;;;;;;9.03;100.00;101629.00;2072807;28;20174;-63
2023/02/24 04:40:25;;;;;;;12.60;9.27;;;;;;;9.03;100.00;101623.47;2069697;28;20186;-63
2023/02/24 04:41:25;;;;;;;13.33;10.00;;;;;;;9.05;100.00;101623.06;2072852;28;20194;-63
2023/02/24 04:42:26;;;;;;;13.97;10.00;;;;;;;9.03;100.00;101620.69;2071934;28;20601;-63
2023/02/24 04:43:28;;;;;;;15.63;9.82;;;;;;;9.01;100.00;101623.09;2072353;28;20199;-63
2023/02/24 04:44:28;;;;;;;14.85;10.00;;;;;;;8.59;100.00;101556.81;2068531;28;20259;-63
2023/02/24 04:45:31;;;;;;;14.23;9.77;;;;;;;8.95;100.00;101618.34;2067088;28;20261;-63
2023/02/24 04:46:31;;;;;;;15.45;9.80;;;;;;;8.90;100.00;101605.72;2072303;28;20208;-63
2023/02/24 04:47:31;;;;;;;15.53;9.90;;;;;;;8.95;100.00;101613.63;2072112;28;20175;-63
2023/02/24 04:48:33;;;;;;;16.43;10.30;;;;;;;8.93;100.00;101616.00;2069919;28;20189;-63
2023/02/24 04:49:34;;;;;;;14.45;9.25;;;;;;;8.45;100.00;101539.47;2072962;28;20263;-63
2023/02/24 04:50:36;;;;;;;16.20;10.13;;;;;;;8.91;100.00;101610.06;2072100;28;20656;-63
2023/02/24 04:51:41;;;;;;;18.67;10.45;;;;;;;8.95;100.00;101613.63;2072849;28;20221;-63
2023/02/24 04:52:43;;;;;;;17.42;9.80;;;;;;;8.98;100.00;101612.03;2071539;28;20708;-63
2023/02/24 04:53:44;;;;;;;14.02;10.20;;;;;;;9.01;100.00;101617.56;2072674;28;20196;-63
2023/02/24 04:54:44;;;;;;;15.03;9.23;;;;;;;8.70;100.00;101567.84;2072390;28;20189;-63
2023/02/24 04:55:49;;;;;;;13.60;9.57;;;;;;;9.01;100.00;101619.50;2072633;28;20177;-63
2023/02/24 04:56:51;;;;;;;18.70;9.75;;;;;;;8.32;100.00;101505.94;2072300;28;20199;-63
2023/02/24 04:57:52;;;;;;;20.90;10.13;;;;;;;9.06;100.00;101619.09;2071729;28;20184;-63
2023/02/24 04:58:53;;;;;;;17.95;9.88;;;;;;;9.07;100.00;101623.47;2072831;28;20226;-63
2023/02/24 04:59:53;;;;;;;18.23;10.20;;;;;;;9.06;100.00;101616.34;2064371;28;20193;-63
2023/02/24 05:00:54;;;;;;;16.97;10.40;;;;;;;9.09;100.00;101610.84;2072246;28;20199;-63
2023/02/24 05:02:00;;;;;;;22.63;10.50;;;;;;;9.12;100.00;101612.78;2069151;28;20279;-63
2023/02/24 05:03:05;;;;;;;17.42;10.13;;;;;;;9.15;100.00;101605.66;2070969;28;20175;-63
2023/02/24 05:04:07;;;;;;;16.38;9.85;;;;;;;9.12;100.00;101601.72;2070129;28;20195;-63